sensor_id;sensor_type;location;lat;lon;timestamp;pressure;altitude;pressure_sealevel;temperature;humidity
31062;BME280;17724;53.546;9.974;2023-07-30T00:03:05;100699.53;;;19.01;100.00
31062;BME280;17724;53.546;9.974;2023-07-30T00:07:05;100715.19;;;18.88;100.00
31062;BME280;17724;53.546;9.974;2023-07-30T00:11:06;100703.72;;;18.53;100.00
31062;BME280;17724;53.546;9.974;2023-07-30T00:15:07;100708.59;;;18.48;100.00
31062;BME280;17724;53.546;9.974;2023-07-30T00:19:08;100707.16;;;18.36;100.00
31062;BME280;17724;53.546;9.974;2023-07-30T00:23:08;100712.31;;;18.29;100.00
31062;BME280;17724;53.546;9.974;2023-07-30T00:27:09;100718.75;;;18.16;100.00
31062;BME280;17724;53.546;9.974;2023-07-30T00:31:09;100713.69;;;18.32;100.00
31062;BME280;17724;53.546;9.974;2023-07-30T00:35:10;100719.44;;;18.35;100.00
31062;BME280;17724;53.546;9.974;2023-07-30T00:39:11;100709.00;;;18.27;100.00
31062;BME280;17724;53.546;9.974;2023-07-30T00:43:11;100699.50;;;18.42;100.00
31062;BME280;17724;53.546;9.974;2023-07-30T00:47:12;100690.25;;;18.33;100.00
31062;BME280;17724;53.546;9.974;2023-07-30T00:51:15;100682.25;;;18.17;100.00
31062;BME280;17724;53.546;9.974;2023-07-30T00:55:16;100690.78;;;18.21;100.00
31062;BME280;17724;53.546;9.974;2023-07-30T00:59:16;100689.25;;;18.15;100.00
31062;BME280;17724;53.546;9.974;2023-07-30T01:03:17;100688.50;;;18.23;100.00
31062;BME280;17724;53.546;9.974;2023-07-30T01:07:18;100685.63;;;18.28;100.00
31062;BME280;17724;53.546;9.974;2023-07-30T01:11:19;100687.50;;;18.19;100.00
31062;BME280;17724;53.546;9.974;2023-07-30T01:15:20;100688.94;;;18.16;100.00
31062;BME280;17724;53.546;9.974;2023-07-30T01:19:20;100685.56;;;18.06;100.00
31062;BME280;17724;53.546;9.974;2023-07-30T01:23:21;100696.97;;;18.18;100.00
31062;BME280;17724;53.546;9.974;2023-07-30T01:31:26;100702.59;;;18.04;100.00
31062;BME280;17724;53.546;9.974;2023-07-30T01:35:27;100706.69;;;18.07;100.00
31062;BME280;17724;53.546;9.974;2023-07-30T01:39:29;100719.88;;;18.01;100.00
31062;BME280;17724;53.546;9.974;2023-07-30T01:43:30;100716.28;;;18.01;100.00
31062;BME280;17724;53.546;9.974;2023-07-30T01:47:31;100703.91;;;17.93;100.00
31062;BME280;17724;53.546;9.974;2023-07-30T01:51:31;100712.69;;;18.00;100.00
31062;BME280;17724;53.546;9.974;2023-07-30T01:55:32;100703.28;;;18.10;100.00
31062;BME280;17724;53.546;9.974;2023-07-30T01:59:33;100700.78;;;18.22;100.00
31062;BME280;17724;53.546;9.974;2023-07-30T02:03:33;100707.63;;;18.16;100.00
31062;BME280;17724;53.546;9.974;2023-07-30T02:07:34;100704.44;;;18.09;100.00
31062;BME280;17724;53.546;9.974;2023-07-30T02:11:34;100702.59;;;18.04;100.00
31062;BME280;17724;53.546;9.974;2023-07-30T02:15:39;100692.78;;;17.93;100.00
31062;BME280;17724;53.546;9.974;2023-07-30T02:19:41;100688.34;;;18.06;100.00
31062;BME280;17724;53.546;9.974;2023-07-30T02:23:42;100699.47;;;18.06;100.00
31062;BME280;17724;53.546;9.974;2023-07-30T02:27:42;100704.00;;;18.02;100.00
31062;BME280;17724;53.546;9.974;2023-07-30T02:31:43;100712.56;;;18.05;100.00
31062;BME280;17724;53.546;9.974;2023-07-30T02:35:44;100684.84;;;17.86;100.00
31062;BME280;17724;53.546;9.974;2023-07-30T02:39:44;100710.31;;;17.93;100.00
31062;BME280;17724;53.546;9.974;2023-07-30T02:43:45;100700.81;;;18.08;100.00
31062;BME280;17724;53.546;9.974;2023-07-30T02:47:45;100713.59;;;18.09;100.00
31062;BME280;17724;53.546;9.974;2023-07-30T02:51:45;100702.38;;;18.01;100.00
31062;BME280;17724;53.546;9.974;2023-07-30T02:55:48;100715.75;;;17.98;100.00
31062;BME280;17724;53.546;9.974;2023-07-30T02:59:49;100712.16;;;17.98;100.00
31062;BME280;17724;53.546;9.974;2023-07-30T03:03:49;100724.69;;;18.23;100.00
31062;BME280;17724;53.546;9.974;2023-07-30T03:07:50;100725.97;;;18.17;100.00
31062;BME280;17724;53.546;9.974;2023-07-30T03:11:52;100730.09;;;18.19;100.00
31062;BME280;17724;53.546;9.974;2023-07-30T03:15:52;100735.31;;;18.07;100.00
31062;BME280;17724;53.546;9.974;2023-07-30T03:19:53;100735.25;;;18.12;100.00
31062;BME280;17724;53.546;9.974;2023-07-30T03:23:54;100735.66;;;17.92;100.00
31062;BME280;17724;53.546;9.974;2023-07-30T03:27:54;100730.50;;;17.99;100.00
31062;BME280;17724;53.546;9.974;2023-07-30T03:31:54;100747.09;;;18.18;100.00
31062;BME280;17724;53.546;9.974;2023-07-30T03:35:55;100735.97;;;18.04;100.00
31062;BME280;17724;53.546;9.974;2023-07-30T03:39:56;100734.94;;;17.86;100.00
31062;BME280;17724;53.546;9.974;2023-07-30T03:43:57;100747.59;;;18.06;100.00
31062;BME280;17724;53.546;9.974;2023-07-30T03:47:58;100738.97;;;18.08;100.00
31062;BME280;17724;53.546;9.974;2023-07-30T03:51:59;100741.97;;;17.84;100.00
31062;BME280;17724;53.546;9.974;2023-07-30T03:56:00;100754.94;;;17.88;100.00
31062;BME280;17724;53.546;9.974;2023-07-30T04:00:00;100742.03;;;17.79;100.00
31062;BME280;17724;53.546;9.974;2023-07-30T04:04:01;100746.69;;;17.97;100.00
31062;BME280;17724;53.546;9.974;2023-07-30T04:08:03;100754.94;;;17.88;100.00
31062;BME280;17724;53.546;9.974;2023-07-30T04:12:03;100743.88;;;17.83;100.00
31062;BME280;17724;53.546;9.974;2023-07-30T04:16:04;100754.09;;;18.02;100.00
31062;BME280;17724;53.546;9.974;2023-07-30T04:20:05;100751.22;;;17.93;100.00
31062;BME280;17724;53.546;9.974;2023-07-30T04:24:05;100754.41;;;18.14;100.00
31062;BME280;17724;53.546;9.974;2023-07-30T04:28:06;100751.53;;;18.05;100.00
31062;BME280;17724;53.546;9.974;2023-07-30T04:32:07;100742.25;;;18.10;100.00
31062;BME280;17724;53.546;9.974;2023-07-30T04:36:07;100749.38;;;18.16;100.00
31062;BME280;17724;53.546;9.974;2023-07-30T04:40:09;100755.03;;;18.25;100.00
31062;BME280;17724;53.546;9.974;2023-07-30T04:44:10;100757.72;;;18.16;100.00
31062;BME280;17724;53.546;9.974;2023-07-30T04:48:11;100759.75;;;18.10;100.00
31062;BME280;17724;53.546;9.974;2023-07-30T04:52:11;100772.16;;;18.04;100.00
31062;BME280;17724;53.546;9.974;2023-07-30T04:56:12;100764.31;;;17.92;100.00
31062;BME280;17724;53.546;9.974;2023-07-30T05:00:12;100764.72;;;18.00;100.00
31062;BME280;17724;53.546;9.974;2023-07-30T05:04:13;100755.53;;;17.99;100.00
31062;BME280;17724;53.546;9.974;2023-07-30T05:08:13;100748.84;;;17.86;100.00
31062;BME280;17724;53.546;9.974;2023-07-30T05:12:14;100754.19;;;18.10;100.00
31062;BME280;17724;53.546;9.974;2023-07-30T05:16:14;100759.75;;;18.10;100.00
31062;BME280;17724;53.546;9.974;2023-07-30T05:20:15;100763.06;;;17.85;100.00
31062;BME280;17724;53.546;9.974;2023-07-30T05:24:15;100761.41;;;17.97;100.00
31062;BME280;17724;53.546;9.974;2023-07-30T05:28:16;100770.31;;;18.00;100.00
31062;BME280;17724;53.546;9.974;2023-07-30T05:32:16;100765.53;;;17.86;100.00
31062;BME280;17724;53.546;9.974;2023-07-30T05:36:17;100761.81;;;17.91;100.00
31062;BME280;17724;53.546;9.974;2023-07-30T05:40:17;100755.94;;;18.06;100.00
31062;BME280;17724;53.546;9.974;2023-07-30T05:44:18;100759.25;;;18.22;100.00
31062;BME280;17724;53.546;9.974;2023-07-30T05:48:19;100753.47;;;18.18;100.00
31062;BME280;17724;53.546;9.974;2023-07-30T05:52:20;100744.63;;;17.89;100.00
31062;BME280;17724;53.546;9.974;2023-07-30T05:56:23;100759.06;;;18.05;100.00
31062;BME280;17724;53.546;9.974;2023-07-30T06:00:23;100744.94;;;18.01;100.00
31062;BME280;17724;53.546;9.974;2023-07-30T06:04:24;100765.13;;;17.93;100.00
31062;BME280;17724;53.546;9.974;2023-07-30T06:08:25;100765.22;;;18.29;100.00
31062;BME280;17724;53.546;9.974;2023-07-30T06:12:25;100771.69;;;18.38;100.00
31062;BME280;17724;53.546;9.974;2023-07-30T06:16:26;100766.25;;;18.33;100.00
31062;BME280;17724;53.546;9.974;2023-07-30T06:20:26;100774.28;;;18.35;100.00
31062;BME280;17724;53.546;9.974;2023-07-30T06:24:27;100775.00;;;18.40;100.00
31062;BME280;17724;53.546;9.974;2023-07-30T06:28:27;100781.63;;;18.67;100.00
31062;BME280;17724;53.546;9.974;2023-07-30T06:32:28;100780.44;;;18.73;100.00
31062;BME280;17724;53.546;9.974;2023-07-30T06:36:31;100776.00;;;18.72;100.00
31062;BME280;17724;53.546;9.974;2023-07-30T06:40:31;100783.13;;;18.64;100.00
31062;BME280;17724;53.546;9.974;2023-07-30T06:44:32;100782.47;;;18.81;100.00
31062;BME280;17724;53.546;9.974;2023-07-30T06:48:32;100781.53;;;18.86;100.00
31062;BME280;17724;53.546;9.974;2023-07-30T06:52:33;100782.91;;;18.75;100.00
31062;BME280;17724;53.546;9.974;2023-07-30T06:56:33;100784.84;;;18.74;100.00
31062;BME280;17724;53.546;9.974;2023-07-30T07:00:34;100783.31;;;18.68;100.00
31062;BME280;17724;53.546;9.974;2023-07-30T07:04:34;100788.97;;;18.63;100.00
31062;BME280;17724;53.546;9.974;2023-07-30T07:08:34;100788.56;;;18.69;100.00
31062;BME280;17724;53.546;9.974;2023-07-30T07:12:35;100793.94;;;19.02;100.00
31062;BME280;17724;53.546;9.974;2023-07-30T07:16:36;100790.09;;;18.89;100.00
31062;BME280;17724;53.546;9.974;2023-07-30T07:20:37;100784.78;;;19.02;100.00
31062;BME280;17724;53.546;9.974;2023-07-30T07:24:37;100796.31;;;19.09;100.00
31062;BME280;17724;53.546;9.974;2023-07-30T07:28:38;100800.69;;;19.01;100.00
31062;BME280;17724;53.546;9.974;2023-07-30T07:32:38;100791.94;;;19.16;100.00
31062;BME280;17724;53.546;9.974;2023-07-30T07:36:39;100802.97;;;19.44;100.00
31062;BME280;17724;53.546;9.974;2023-07-30T07:40:40;100800.84;;;19.63;100.00
31062;BME280;17724;53.546;9.974;2023-07-30T07:44:40;100799.72;;;19.73;100.00
31062;BME280;17724;53.546;9.974;2023-07-30T07:48:43;100800.69;;;20.00;100.00
31062;BME280;17724;53.546;9.974;2023-07-30T07:52:44;100782.38;;;19.85;100.00
31062;BME280;17724;53.546;9.974;2023-07-30T07:56:44;100794.41;;;19.94;100.00
31062;BME280;17724;53.546;9.974;2023-07-30T08:00:45;100802.06;;;20.11;100.00
31062;BME280;17724;53.546;9.974;2023-07-30T08:04:45;100801.88;;;20.07;100.00
31062;BME280;17724;53.546;9.974;2023-07-30T08:08:46;100787.78;;;20.21;100.00
31062;BME280;17724;53.546;9.974;2023-07-30T08:12:46;100797.06;;;20.48;98.73
31062;BME280;17724;53.546;9.974;2023-07-30T08:16:49;100797.19;;;20.42;97.49
31062;BME280;17724;53.546;9.974;2023-07-30T08:20:50;100798.34;;;20.41;97.43
31062;BME280;17724;53.546;9.974;2023-07-30T08:24:50;100793.75;;;20.37;97.44
31062;BME280;17724;53.546;9.974;2023-07-30T08:28:51;100788.16;;;20.37;97.18
31062;BME280;17724;53.546;9.974;2023-07-30T08:32:51;100786.78;;;20.83;96.69
31062;BME280;17724;53.546;9.974;2023-07-30T08:36:51;100787.09;;;20.81;95.54
31062;BME280;17724;53.546;9.974;2023-07-30T08:40:52;100786.28;;;20.72;95.27
31062;BME280;17724;53.546;9.974;2023-07-30T08:44:52;100786.94;;;20.78;94.42
31062;BME280;17724;53.546;9.974;2023-07-30T08:48:53;100784.13;;;20.52;92.99
31062;BME280;17724;53.546;9.974;2023-07-30T08:52:55;100789.25;;;20.67;93.59
31062;BME280;17724;53.546;9.974;2023-07-30T08:56:59;100787.28;;;20.67;94.05
31062;BME280;17724;53.546;9.974;2023-07-30T09:01:01;100800.97;;;20.38;92.65
31062;BME280;17724;53.546;9.974;2023-07-30T09:05:05;100799.16;;;20.33;94.45
31062;BME280;17724;53.546;9.974;2023-07-30T09:09:11;100798.41;;;20.50;93.34
31062;BME280;17724;53.546;9.974;2023-07-30T09:13:20;100795.47;;;20.64;93.99
31062;BME280;17724;53.546;9.974;2023-07-30T09:17:22;100789.91;;;20.81;93.47
31062;BME280;17724;53.546;9.974;2023-07-30T09:21:33;100786.75;;;20.57;91.45
31062;BME280;17724;53.546;9.974;2023-07-30T09:25:35;100796.34;;;20.33;92.34
31062;BME280;17724;53.546;9.974;2023-07-30T09:29:36;100789.56;;;20.65;92.18
31062;BME280;17724;53.546;9.974;2023-07-30T09:33:41;100798.13;;;20.78;92.29
31062;BME280;17724;53.546;9.974;2023-07-30T09:37:42;100805.19;;;21.01;90.47
31062;BME280;17724;53.546;9.974;2023-07-30T09:41:43;100802.41;;;21.19;90.06
31062;BME280;17724;53.546;9.974;2023-07-30T09:45:45;100813.78;;;21.39;88.99
31062;BME280;17724;53.546;9.974;2023-07-30T09:49:48;100808.50;;;21.38;89.59
31062;BME280;17724;53.546;9.974;2023-07-30T09:53:49;100811.97;;;21.35;87.76
31062;BME280;17724;53.546;9.974;2023-07-30T09:57:50;100812.75;;;21.61;89.02
31062;BME280;17724;53.546;9.974;2023-07-30T10:01:52;100810.75;;;21.62;87.84
31062;BME280;17724;53.546;9.974;2023-07-30T10:06:02;100815.66;;;21.82;85.52
31062;BME280;17724;53.546;9.974;2023-07-30T10:10:03;100834.88;;;21.93;81.46
31062;BME280;17724;53.546;9.974;2023-07-30T10:14:04;100838.06;;;21.82;82.48
31062;BME280;17724;53.546;9.974;2023-07-30T10:18:05;100838.31;;;21.43;81.41
31062;BME280;17724;53.546;9.974;2023-07-30T10:26:26;100848.16;;;21.49;83.56
31062;BME280;17724;53.546;9.974;2023-07-30T10:30:31;100851.53;;;21.89;83.46
31062;BME280;17724;53.546;9.974;2023-07-30T10:34:46;100830.22;;;22.23;81.34
31062;BME280;17724;53.546;9.974;2023-07-30T10:38:47;100848.50;;;22.50;79.09
31062;BME280;17724;53.546;9.974;2023-07-30T10:42:48;100860.31;;;22.26;77.31
31062;BME280;17724;53.546;9.974;2023-07-30T10:46:50;100858.31;;;21.79;75.99
31062;BME280;17724;53.546;9.974;2023-07-30T10:50:51;100849.56;;;21.89;77.63
31062;BME280;17724;53.546;9.974;2023-07-30T10:54:59;100863.56;;;21.81;75.48
31062;BME280;17724;53.546;9.974;2023-07-30T10:59:03;100845.47;;;21.87;75.00
31062;BME280;17724;53.546;9.974;2023-07-30T11:03:04;100855.63;;;22.00;74.10
31062;BME280;17724;53.546;9.974;2023-07-30T11:07:05;100849.41;;;21.86;73.88
31062;BME280;17724;53.546;9.974;2023-07-30T11:11:07;100844.50;;;21.65;76.53
31062;BME280;17724;53.546;9.974;2023-07-30T11:15:08;100854.16;;;22.03;73.02
31062;BME280;17724;53.546;9.974;2023-07-30T11:19:10;100846.03;;;22.19;72.12
31062;BME280;17724;53.546;9.974;2023-07-30T11:23:22;100843.16;;;22.36;70.26
31062;BME280;17724;53.546;9.974;2023-07-30T11:27:23;100823.91;;;22.34;70.41
31062;BME280;17724;53.546;9.974;2023-07-30T11:31:24;100839.34;;;22.41;69.62
31062;BME280;17724;53.546;9.974;2023-07-30T11:35:28;100835.50;;;22.45;68.35
31062;BME280;17724;53.546;9.974;2023-07-30T11:39:31;100840.41;;;22.57;68.88
31062;BME280;17724;53.546;9.974;2023-07-30T11:43:43;100835.44;;;22.62;68.07
31062;BME280;17724;53.546;9.974;2023-07-30T11:47:43;100833.09;;;22.65;63.05
31062;BME280;17724;53.546;9.974;2023-07-30T11:51:44;100821.88;;;22.65;63.85
31062;BME280;17724;53.546;9.974;2023-07-30T11:55:48;100824.03;;;22.68;62.28
31062;BME280;17724;53.546;9.974;2023-07-30T11:59:48;100819.91;;;23.16;63.01
31062;BME280;17724;53.546;9.974;2023-07-30T12:03:49;100817.19;;;23.07;61.64
31062;BME280;17724;53.546;9.974;2023-07-30T12:07:49;100818.44;;;23.09;61.32
31062;BME280;17724;53.546;9.974;2023-07-30T12:15:51;100788.50;;;23.22;63.15
31062;BME280;17724;53.546;9.974;2023-07-30T12:20:00;100783.66;;;23.10;61.30
31062;BME280;17724;53.546;9.974;2023-07-30T12:24:06;100794.31;;;22.96;58.25
31062;BME280;17724;53.546;9.974;2023-07-30T12:28:07;100790.03;;;22.99;58.55
31062;BME280;17724;53.546;9.974;2023-07-30T12:32:08;100783.69;;;23.23;57.65
31062;BME280;17724;53.546;9.974;2023-07-30T12:36:08;100778.91;;;23.23;57.21
31062;BME280;17724;53.546;9.974;2023-07-30T12:40:09;100772.75;;;23.09;57.60
31062;BME280;17724;53.546;9.974;2023-07-30T12:44:10;100768.13;;;23.25;58.35
31062;BME280;17724;53.546;9.974;2023-07-30T12:48:10;100762.88;;;23.24;55.98
31062;BME280;17724;53.546;9.974;2023-07-30T12:52:11;100761.06;;;23.07;55.19
31062;BME280;17724;53.546;9.974;2023-07-30T12:56:12;100767.97;;;23.09;54.36
31062;BME280;17724;53.546;9.974;2023-07-30T13:00:13;100765.16;;;23.09;55.79
31062;BME280;17724;53.546;9.974;2023-07-30T13:04:13;100758.34;;;22.98;56.72
31062;BME280;17724;53.546;9.974;2023-07-30T13:08:14;100786.75;;;22.88;59.16
31062;BME280;17724;53.546;9.974;2023-07-30T13:12:14;100855.19;;;19.52;85.69
31062;BME280;17724;53.546;9.974;2023-07-30T13:16:15;100863.06;;;18.50;98.27
31062;BME280;17724;53.546;9.974;2023-07-30T13:20:16;100881.97;;;18.39;100.00
31062;BME280;17724;53.546;9.974;2023-07-30T13:24:16;100906.94;;;17.98;100.00
31062;BME280;17724;53.546;9.974;2023-07-30T13:28:17;100911.31;;;17.53;100.00
31062;BME280;17724;53.546;9.974;2023-07-30T13:32:17;100912.94;;;17.35;100.00
31062;BME280;17724;53.546;9.974;2023-07-30T13:36:18;100922.00;;;17.59;100.00
31062;BME280;17724;53.546;9.974;2023-07-30T13:40:18;100928.47;;;17.73;100.00
31062;BME280;17724;53.546;9.974;2023-07-30T13:44:20;100922.69;;;17.70;100.00
31062;BME280;17724;53.546;9.974;2023-07-30T13:48:21;100926.38;;;17.65;100.00
31062;BME280;17724;53.546;9.974;2023-07-30T13:52:21;100921.75;;;17.42;100.00
31062;BME280;17724;53.546;9.974;2023-07-30T13:56:22;100912.84;;;17.78;100.00
31062;BME280;17724;53.546;9.974;2023-07-30T14:00:23;100893.00;;;17.84;100.00
31062;BME280;17724;53.546;9.974;2023-07-30T14:04:23;100897.13;;;17.87;100.00
31062;BME280;17724;53.546;9.974;2023-07-30T14:08:24;100894.44;;;17.82;100.00
31062;BME280;17724;53.546;9.974;2023-07-30T14:12:24;100883.84;;;17.84;100.00
31062;BME280;17724;53.546;9.974;2023-07-30T14:16:25;100858.63;;;18.08;100.00
31062;BME280;17724;53.546;9.974;2023-07-30T14:20:26;100865.22;;;18.26;100.00
31062;BME280;17724;53.546;9.974;2023-07-30T14:24:27;100879.69;;;18.41;100.00
31062;BME280;17724;53.546;9.974;2023-07-30T14:28:27;100872.88;;;18.61;98.96
31062;BME280;17724;53.546;9.974;2023-07-30T14:32:28;100848.81;;;18.65;94.74
31062;BME280;17724;53.546;9.974;2023-07-30T14:36:29;100874.91;;;18.97;93.82
31062;BME280;17724;53.546;9.974;2023-07-30T14:40:30;100856.56;;;19.18;93.55
31062;BME280;17724;53.546;9.974;2023-07-30T14:44:31;100857.47;;;19.28;92.46
31062;BME280;17724;53.546;9.974;2023-07-30T14:48:31;100863.19;;;19.45;92.19
31062;BME280;17724;53.546;9.974;2023-07-30T14:52:32;100866.97;;;19.49;90.13
31062;BME280;17724;53.546;9.974;2023-07-30T14:56:33;100858.66;;;19.72;91.13
31062;BME280;17724;53.546;9.974;2023-07-30T15:00:33;100872.13;;;19.78;86.93
31062;BME280;17724;53.546;9.974;2023-07-30T15:04:34;100865.53;;;19.97;88.13
31062;BME280;17724;53.546;9.974;2023-07-30T15:08:34;100871.75;;;19.93;85.32
31062;BME280;17724;53.546;9.974;2023-07-30T15:12:35;100869.47;;;19.96;85.18
31062;BME280;17724;53.546;9.974;2023-07-30T15:16:35;100867.41;;;20.18;87.87
31062;BME280;17724;53.546;9.974;2023-07-30T15:20:36;100880.50;;;20.40;86.40
31062;BME280;17724;53.546;9.974;2023-07-30T15:24:36;100880.69;;;20.44;84.20
31062;BME280;17724;53.546;9.974;2023-07-30T15:28:37;100892.97;;;20.34;82.66
31062;BME280;17724;53.546;9.974;2023-07-30T15:32:41;100897.00;;;20.20;82.56
31062;BME280;17724;53.546;9.974;2023-07-30T15:36:42;100889.13;;;20.22;84.29
31062;BME280;17724;53.546;9.974;2023-07-30T15:40:43;100890.63;;;20.19;82.40
31062;BME280;17724;53.546;9.974;2023-07-30T15:44:43;100891.38;;;20.11;81.41
31062;BME280;17724;53.546;9.974;2023-07-30T15:48:44;100897.13;;;20.14;82.89
31062;BME280;17724;53.546;9.974;2023-07-30T15:52:44;100892.03;;;20.08;87.01
31062;BME280;17724;53.546;9.974;2023-07-30T15:56:45;100885.06;;;19.97;90.78
31062;BME280;17724;53.546;9.974;2023-07-30T16:00:45;100872.47;;;19.77;91.70
31062;BME280;17724;53.546;9.974;2023-07-30T16:04:46;100858.06;;;19.83;93.34
31062;BME280;17724;53.546;9.974;2023-07-30T16:08:46;100864.78;;;19.82;94.28
31062;BME280;17724;53.546;9.974;2023-07-30T16:12:47;100866.25;;;19.80;91.30
31062;BME280;17724;53.546;9.974;2023-07-30T16:16:47;100868.81;;;19.99;93.45
31062;BME280;17724;53.546;9.974;2023-07-30T16:20:59;100872.31;;;19.82;91.92
31062;BME280;17724;53.546;9.974;2023-07-30T16:25:00;100878.50;;;20.01;93.92
31062;BME280;17724;53.546;9.974;2023-07-30T16:29:02;100876.94;;;20.17;94.08
31062;BME280;17724;53.546;9.974;2023-07-30T16:33:03;100886.84;;;19.92;91.17
31062;BME280;17724;53.546;9.974;2023-07-30T16:37:04;100891.31;;;20.02;92.62
31062;BME280;17724;53.546;9.974;2023-07-30T16:41:05;100901.84;;;20.05;92.10
31062;BME280;17724;53.546;9.974;2023-07-30T16:45:06;100900.88;;;20.10;92.46
31062;BME280;17724;53.546;9.974;2023-07-30T16:49:06;100892.09;;;20.25;91.45
31062;BME280;17724;53.546;9.974;2023-07-30T16:53:08;100880.47;;;20.32;91.25
31062;BME280;17724;53.546;9.974;2023-07-30T16:57:09;100878.06;;;20.39;91.67
31062;BME280;17724;53.546;9.974;2023-07-30T17:01:12;100882.28;;;19.97;90.35
31062;BME280;17724;53.546;9.974;2023-07-30T17:05:16;100874.63;;;20.11;92.22
31062;BME280;17724;53.546;9.974;2023-07-30T17:09:17;100877.03;;;19.95;90.82
31062;BME280;17724;53.546;9.974;2023-07-30T17:13:17;100909.22;;;19.79;87.23
31062;BME280;17724;53.546;9.974;2023-07-30T17:17:18;100915.91;;;19.91;88.36
31062;BME280;17724;53.546;9.974;2023-07-30T17:21:21;100922.13;;;19.88;88.44
31062;BME280;17724;53.546;9.974;2023-07-30T17:25:23;100920.78;;;19.86;88.53
31062;BME280;17724;53.546;9.974;2023-07-30T17:29:24;100916.91;;;19.73;88.62
31062;BME280;17724;53.546;9.974;2023-07-30T17:33:24;100924.03;;;19.79;89.94
31062;BME280;17724;53.546;9.974;2023-07-30T17:37:25;100928.09;;;19.73;90.48
31062;BME280;17724;53.546;9.974;2023-07-30T17:41:25;100928.41;;;19.58;87.94
31062;BME280;17724;53.546;9.974;2023-07-30T17:45:26;100928.34;;;19.49;87.33
31062;BME280;17724;53.546;9.974;2023-07-30T17:49:27;100896.31;;;19.47;88.79
31062;BME280;17724;53.546;9.974;2023-07-30T17:53:28;100932.97;;;19.31;87.07
31062;BME280;17724;53.546;9.974;2023-07-30T17:57:28;100969.56;;;19.52;91.38
31062;BME280;17724;53.546;9.974;2023-07-30T18:01:29;100959.81;;;17.98;97.16
31062;BME280;17724;53.546;9.974;2023-07-30T18:05:29;100940.94;;;17.95;100.00
31062;BME280;17724;53.546;9.974;2023-07-30T18:09:29;100922.56;;;17.80;100.00
31062;BME280;17724;53.546;9.974;2023-07-30T18:13:30;100936.34;;;18.18;100.00
31062;BME280;17724;53.546;9.974;2023-07-30T18:17:31;100958.16;;;17.97;100.00
31062;BME280;17724;53.546;9.974;2023-07-30T18:21:31;100968.97;;;17.98;100.00
31062;BME280;17724;53.546;9.974;2023-07-30T18:25:32;100959.84;;;17.60;100.00
31062;BME280;17724;53.546;9.974;2023-07-30T18:29:32;100962.69;;;17.74;100.00
31062;BME280;17724;53.546;9.974;2023-07-30T18:33:33;100947.91;;;17.60;100.00
31062;BME280;17724;53.546;9.974;2023-07-30T18:37:33;100955.47;;;17.73;100.00
31062;BME280;17724;53.546;9.974;2023-07-30T18:41:34;100964.59;;;17.60;100.00
31062;BME280;17724;53.546;9.974;2023-07-30T18:45:37;100973.75;;;17.60;100.00
31062;BME280;17724;53.546;9.974;2023-07-30T18:49:37;100975.53;;;17.51;100.00
31062;BME280;17724;53.546;9.974;2023-07-30T18:53:38;100989.53;;;17.65;100.00
31062;BME280;17724;53.546;9.974;2023-07-30T18:57:39;100988.56;;;17.56;100.00
31062;BME280;17724;53.546;9.974;2023-07-30T19:01:39;100987.88;;;17.64;100.00
31062;BME280;17724;53.546;9.974;2023-07-30T19:05:40;101003.53;;;17.60;100.00
31062;BME280;17724;53.546;9.974;2023-07-30T19:09:40;101004.06;;;17.81;100.00
31062;BME280;17724;53.546;9.974;2023-07-30T19:13:41;101004.41;;;17.74;100.00
31062;BME280;17724;53.546;9.974;2023-07-30T19:17:41;101000.78;;;17.73;100.00
31062;BME280;17724;53.546;9.974;2023-07-30T19:21:42;101012.97;;;17.59;100.00
31062;BME280;17724;53.546;9.974;2023-07-30T19:25:49;101004.63;;;17.59;100.00
31062;BME280;17724;53.546;9.974;2023-07-30T19:29:50;101018.47;;;17.64;100.00
31062;BME280;17724;53.546;9.974;2023-07-30T19:33:51;101010.25;;;17.54;100.00
31062;BME280;17724;53.546;9.974;2023-07-30T19:37:51;101011.91;;;17.55;100.00
31062;BME280;17724;53.546;9.974;2023-07-30T19:41:52;101017.25;;;17.51;100.00
31062;BME280;17724;53.546;9.974;2023-07-30T19:45:52;101014.03;;;17.44;100.00
31062;BME280;17724;53.546;9.974;2023-07-30T19:49:53;101009.06;;;17.41;100.00
31062;BME280;17724;53.546;9.974;2023-07-30T19:53:53;101007.25;;;17.50;100.00
31062;BME280;17724;53.546;9.974;2023-07-30T19:57:57;100998.91;;;17.50;100.00
31062;BME280;17724;53.546;9.974;2023-07-30T20:01:58;100997.50;;;17.53;100.00
31062;BME280;17724;53.546;9.974;2023-07-30T20:06:00;100995.47;;;17.58;100.00
31062;BME280;17724;53.546;9.974;2023-07-30T20:10:00;100984.88;;;17.60;100.00
31062;BME280;17724;53.546;9.974;2023-07-30T20:14:01;100981.19;;;17.65;100.00
31062;BME280;17724;53.546;9.974;2023-07-30T20:18:02;100981.88;;;17.57;100.00
31062;BME280;17724;53.546;9.974;2023-07-30T20:22:03;100971.72;;;17.28;100.00
31062;BME280;17724;53.546;9.974;2023-07-30T20:26:14;100966.91;;;17.34;100.00
31062;BME280;17724;53.546;9.974;2023-07-30T20:30:14;100974.94;;;17.54;100.00
31062;BME280;17724;53.546;9.974;2023-07-30T20:34:15;100970.66;;;17.62;100.00
31062;BME280;17724;53.546;9.974;2023-07-30T20:38:15;100957.44;;;17.54;100.00
31062;BME280;17724;53.546;9.974;2023-07-30T20:42:16;100964.63;;;17.55;100.00
31062;BME280;17724;53.546;9.974;2023-07-30T20:46:17;100971.34;;;17.72;100.00
31062;BME280;17724;53.546;9.974;2023-07-30T20:50:18;100967.78;;;17.67;100.00
31062;BME280;17724;53.546;9.974;2023-07-30T20:54:19;100962.41;;;17.57;100.00
31062;BME280;17724;53.546;9.974;2023-07-30T20:58:19;100962.50;;;17.52;100.00
31062;BME280;17724;53.546;9.974;2023-07-30T21:02:21;100942.25;;;17.27;100.00